Time;durP1;ratioP1;P1;durP2;ratioP2;P2;SDS_P1;SDS_P2;PMS_P1;PMS_P2;Temp;Humidity;BMP_temperature;BMP_pressure;BME280_temperature;BME280_humidity;BME280_pressure;Samples;Min_cycle;Max_cycle;Signal;HPM_P1;HPM_P2
2024/01/16 00:02:16;;;;;;;38.95;7.45;;;-0.10;99.90;;;;;;5087876;28;20086;-79
2024/01/16 00:04:42;;;;;;;29.13;6.32;;;-0.10;99.90;;;;;;5082564;28;20036;-78
2024/01/16 00:07:07;;;;;;;19.90;5.63;;;-0.10;99.90;;;;;;5088409;28;20051;-78
2024/01/16 00:09:34;;;;;;;19.23;5.35;;;-0.20;99.90;;;;;;5076308;28;20040;-78
2024/01/16 00:12:00;;;;;;;40.08;6.88;;;-0.20;99.90;;;;;;5079329;28;20127;-79
2024/01/16 00:14:27;;;;;;;26.67;5.82;;;-0.20;99.90;;;;;;5082419;28;20139;-79
2024/01/16 00:16:53;;;;;;;34.30;6.30;;;-0.20;99.90;;;;;;5086643;28;20052;-78
2024/01/16 00:19:18;;;;;;;44.47;7.45;;;-0.20;99.90;;;;;;5075619;28;20056;-78
2024/01/16 00:21:47;;;;;;;29.05;6.53;;;-0.20;99.90;;;;;;5095878;28;20062;-78
2024/01/16 00:24:17;;;;;;;28.23;6.75;;;-0.30;99.90;;;;;;5075133;28;20044;-79
2024/01/16 00:26:42;;;;;;;29.98;7.03;;;-0.30;99.90;;;;;;5080822;28;20040;-78
2024/01/16 00:29:12;;;;;;;28.63;7.50;;;-0.30;99.90;;;;;;5078223;28;20536;-78
2024/01/16 00:31:38;;;;;;;44.58;7.53;;;-0.30;99.90;;;;;;5077422;28;20056;-78
2024/01/16 00:34:04;;;;;;;27.52;6.28;;;-0.30;99.90;;;;;;5073016;28;20129;-78
2024/01/16 00:36:30;;;;;;;26.02;7.32;;;-0.40;99.90;;;;;;5080991;28;20516;-78
2024/01/16 00:38:56;;;;;;;32.25;7.20;;;-0.40;99.90;;;;;;5083500;28;20058;-78
2024/01/16 00:41:22;;;;;;;33.58;7.55;;;-0.40;99.90;;;;;;5076130;28;20439;-78
2024/01/16 00:43:47;;;;;;;31.98;7.25;;;-0.40;99.90;;;;;;5086770;28;20051;-78
2024/01/16 00:46:13;;;;;;;30.15;7.28;;;-0.40;99.90;;;;;;5085247;28;20396;-79
2024/01/16 00:48:39;;;;;;;34.00;7.90;;;-0.40;99.90;;;;;;5070735;28;20037;-78
2024/01/16 00:51:05;;;;;;;25.83;7.05;;;-0.40;99.90;;;;;;5082482;28;20059;-78
2024/01/16 00:53:30;;;;;;;44.05;6.85;;;-0.50;99.90;;;;;;5067517;28;20062;-78
2024/01/16 00:55:56;;;;;;;27.30;6.57;;;-0.40;99.90;;;;;;5069899;28;20456;-79
2024/01/16 00:58:22;;;;;;;34.80;6.35;;;-0.50;99.90;;;;;;5086478;28;20100;-78
2024/01/16 01:00:48;;;;;;;34.85;6.90;;;-0.50;99.90;;;;;;5075152;28;20048;-78
2024/01/16 01:03:14;;;;;;;26.25;6.28;;;-0.50;99.90;;;;;;5083318;28;20048;-78
2024/01/16 01:05:40;;;;;;;27.50;7.47;;;-0.50;99.90;;;;;;5067156;28;20119;-78
2024/01/16 01:08:06;;;;;;;28.63;6.65;;;-0.50;99.90;;;;;;5076314;28;20083;-78
2024/01/16 01:10:31;;;;;;;23.25;6.22;;;-0.50;99.90;;;;;;5087692;28;20040;-78
2024/01/16 01:12:57;;;;;;;28.15;6.05;;;-0.50;99.90;;;;;;5081548;28;20062;-78
2024/01/16 01:15:23;;;;;;;40.47;6.70;;;-0.50;99.90;;;;;;5085852;28;20071;-78
2024/01/16 01:17:49;;;;;;;25.25;5.57;;;-0.50;99.90;;;;;;5083348;28;20520;-78
2024/01/16 01:20:18;;;;;;;26.90;6.10;;;-0.50;99.90;;;;;;5076532;28;20051;-77
2024/01/16 01:22:44;;;;;;;31.90;6.60;;;-0.40;99.90;;;;;;5079440;28;20044;-77
2024/01/16 01:25:10;;;;;;;34.50;7.57;;;-0.40;99.90;;;;;;5080738;28;20334;-78
2024/01/16 01:27:36;;;;;;;22.17;6.13;;;-0.40;99.90;;;;;;5075407;28;20043;-78
2024/01/16 01:30:02;;;;;;;35.85;5.95;;;-0.30;99.90;;;;;;5093661;28;20589;-77
2024/01/16 01:32:27;;;;;;;34.47;7.55;;;-0.30;99.90;;;;;;5086078;28;20071;-78
2024/01/16 01:34:53;;;;;;;28.80;5.95;;;-0.30;99.90;;;;;;5078693;28;20496;-77
2024/01/16 01:37:19;;;;;;;21.30;5.68;;;-0.30;99.90;;;;;;5083181;28;20044;-77
2024/01/16 01:39:44;;;;;;;28.45;5.40;;;-0.30;99.90;;;;;;5079532;28;20040;-78
2024/01/16 01:42:10;;;;;;;27.55;5.97;;;-0.30;99.90;;;;;;5079739;28;20040;-77
2024/01/16 01:44:35;;;;;;;17.23;5.10;;;-0.30;99.90;;;;;;5070903;28;20504;-78
2024/01/16 01:47:02;;;;;;;17.45;4.95;;;-0.30;99.90;;;;;;5071538;28;20195;-77
2024/01/16 01:49:27;;;;;;;19.88;5.18;;;-0.40;99.90;;;;;;5091118;28;20142;-77
2024/01/16 01:51:54;;;;;;;11.13;4.45;;;-0.40;99.90;;;;;;5078232;28;20494;-77
2024/01/16 01:54:20;;;;;;;21.75;5.03;;;-0.40;99.90;;;;;;5077476;28;20071;-77
2024/01/16 01:56:47;;;;;;;18.77;5.57;;;-0.40;99.90;;;;;;5076759;28;20048;-77
2024/01/16 01:59:14;;;;;;;22.90;5.05;;;-0.40;99.90;;;;;;5086627;28;20039;-77
2024/01/16 02:01:41;;;;;;;6.22;1.30;;;-0.40;99.90;;;;;;5078677;28;20054;-77
2024/01/16 02:04:09;;;;;;;21.95;5.18;;;-0.50;99.90;;;;;;5072903;28;20063;-77
2024/01/16 02:06:40;;;;;;;21.35;4.93;;;-0.50;99.90;;;;;;5078218;28;20048;-76
2024/01/16 02:09:07;;;;;;;20.98;3.83;;;-0.50;99.90;;;;;;5073028;28;20053;-76
2024/01/16 02:11:32;;;;;;;17.23;4.15;;;-0.50;99.90;;;;;;5073311;28;20059;-77
2024/01/16 02:13:58;;;;;;;25.75;4.18;;;-0.60;99.90;;;;;;5081200;28;20498;-77
2024/01/16 02:16:24;;;;;;;11.45;4.40;;;-0.60;99.90;;;;;;5080870;28;20043;-76
2024/01/16 02:18:51;;;;;;;16.02;4.45;;;-0.60;99.90;;;;;;5080243;28;20048;-77
2024/01/16 02:21:27;;;;;;;24.15;4.47;;;-0.60;99.90;;;;;;5082850;28;20416;-77
2024/01/16 02:23:53;;;;;;;14.75;3.70;;;-0.60;99.90;;;;;;5054806;28;20064;-77
2024/01/16 02:26:19;;;;;;;15.55;3.72;;;-0.60;99.90;;;;;;5071724;28;20032;-78
2024/01/16 02:28:45;;;;;;;28.75;4.88;;;-0.60;99.90;;;;;;5080346;28;20094;-77
2024/01/16 02:31:11;;;;;;;16.25;4.40;;;-0.60;99.90;;;;;;5068272;28;20518;-77
2024/01/16 02:33:36;;;;;;;10.50;3.58;;;-0.70;99.90;;;;;;5077506;28;20044;-77
2024/01/16 02:36:02;;;;;;;14.82;4.78;;;-0.70;99.90;;;;;;5067734;28;20040;-77
2024/01/16 02:38:29;;;;;;;27.63;4.25;;;-0.70;99.90;;;;;;5084296;28;20123;-77
2024/01/16 02:40:54;;;;;;;15.48;4.32;;;-0.60;99.90;;;;;;5084766;28;20048;-77
2024/01/16 02:43:20;;;;;;;16.27;4.20;;;-0.60;99.90;;;;;;5081352;28;20054;-77
2024/01/16 02:45:46;;;;;;;18.15;3.83;;;-0.60;99.90;;;;;;5070329;28;20044;-77
2024/01/16 02:48:11;;;;;;;18.63;4.70;;;-0.60;99.90;;;;;;5075949;28;20036;-77
2024/01/16 02:50:38;;;;;;;20.60;4.18;;;-0.60;99.90;;;;;;5080299;28;20455;-78
2024/01/16 02:53:04;;;;;;;21.35;4.05;;;-0.50;99.90;;;;;;5078023;28;20060;-78
2024/01/16 02:55:29;;;;;;;17.73;3.58;;;-0.50;99.90;;;;;;5079961;28;20087;-78
2024/01/16 02:57:55;;;;;;;14.10;4.30;;;-0.50;99.90;;;;;;5069877;28;20048;-78
2024/01/16 03:00:22;;;;;;;16.98;3.78;;;-0.50;99.90;;;;;;5086219;28;20074;-78
2024/01/16 03:02:48;;;;;;;17.77;3.53;;;-0.50;99.90;;;;;;5085065;28;20060;-78
2024/01/16 03:05:14;;;;;;;15.48;3.70;;;-0.50;99.90;;;;;;5074243;28;20056;-78
2024/01/16 03:07:40;;;;;;;21.98;3.72;;;-0.50;99.90;;;;;;5085098;28;20046;-78
2024/01/16 03:10:07;;;;;;;15.13;3.72;;;-0.50;99.90;;;;;;5086852;28;20066;-77
2024/01/16 03:12:33;;;;;;;19.60;4.20;;;-0.50;99.90;;;;;;5086779;28;20087;-77
2024/01/16 03:14:59;;;;;;;12.95;4.00;;;-0.50;99.90;;;;;;5074222;28;20106;-77
2024/01/16 03:17:24;;;;;;;7.88;3.63;;;-0.50;99.90;;;;;;5083558;28;20082;-77
2024/01/16 03:19:50;;;;;;;24.98;4.80;;;-0.50;99.90;;;;;;5070954;28;20051;-77
2024/01/16 03:22:15;;;;;;;16.60;3.88;;;-0.50;99.90;;;;;;5077469;28;20097;-77
2024/01/16 03:24:41;;;;;;;15.00;3.97;;;-0.50;99.90;;;;;;5089599;28;20485;-77
2024/01/16 03:27:07;;;;;;;14.15;3.72;;;-0.50;99.90;;;;;;5082218;28;20052;-76
2024/01/16 03:29:33;;;;;;;14.18;3.72;;;-0.50;99.90;;;;;;5071461;28;20044;-76
2024/01/16 03:31:59;;;;;;;21.83;3.80;;;-0.60;99.90;;;;;;5083871;28;20101;-76
2024/01/16 03:34:25;;;;;;;28.38;4.30;;;-0.60;99.90;;;;;;5088526;28;20579;-77
2024/01/16 03:36:50;;;;;;;18.17;3.72;;;-0.60;99.90;;;;;;5089349;28;20101;-76
2024/01/16 03:39:16;;;;;;;18.92;4.05;;;-0.60;99.90;;;;;;5064134;28;20040;-76
2024/01/16 03:41:41;;;;;;;20.35;4.30;;;-0.60;99.90;;;;;;5071505;28;20040;-76
2024/01/16 03:44:07;;;;;;;21.90;4.00;;;-0.60;99.90;;;;;;5076644;28;20147;-76
2024/01/16 03:46:32;;;;;;;18.08;4.13;;;-0.70;99.90;;;;;;5058777;28;20482;-76
2024/01/16 03:48:58;;;;;;;13.55;4.05;;;-0.60;99.90;;;;;;5073091;28;20053;-76
2024/01/16 03:51:24;;;;;;;16.65;3.90;;;-0.70;99.90;;;;;;5078831;28;20040;-76
2024/01/16 03:53:49;;;;;;;22.25;4.35;;;-0.70;99.90;;;;;;5082656;28;20127;-76
2024/01/16 03:56:18;;;;;;;17.05;3.83;;;-0.70;99.90;;;;;;5080184;28;20078;-76
2024/01/16 03:58:44;;;;;;;18.15;3.70;;;-0.70;99.90;;;;;;5087176;28;20048;-76
2024/01/16 04:01:09;;;;;;;16.00;4.35;;;-0.70;99.90;;;;;;5082705;28;20334;-76
2024/01/16 04:03:35;;;;;;;14.27;3.92;;;-0.70;99.90;;;;;;5076934;28;20041;-76
2024/01/16 04:06:01;;;;;;;17.35;4.72;;;-0.70;99.90;;;;;;5079664;28;20059;-76
2024/01/16 04:08:26;;;;;;;17.00;3.80;;;-0.70;99.90;;;;;;5080297;28;20039;-76
2024/01/16 04:10:52;;;;;;;18.77;4.28;;;-0.70;99.90;;;;;;5086869;28;20048;-75
2024/01/16 04:13:18;;;;;;;19.35;4.15;;;-0.70;99.90;;;;;;5072475;28;20040;-76
2024/01/16 04:15:44;;;;;;;14.15;4.03;;;-0.80;99.90;;;;;;5084021;28;20043;-76
2024/01/16 04:18:10;;;;;;;26.95;4.45;;;-0.80;99.90;;;;;;5075032;28;20070;-76
2024/01/16 04:20:37;;;;;;;21.80;4.15;;;-0.80;99.90;;;;;;5078297;28;20394;-76
2024/01/16 04:23:03;;;;;;;20.35;3.78;;;-0.80;99.90;;;;;;5077581;28;20059;-76
2024/01/16 04:25:29;;;;;;;13.20;3.45;;;-0.80;99.90;;;;;;5087529;28;20499;-76
2024/01/16 04:27:55;;;;;;;21.17;3.97;;;-0.80;99.90;;;;;;5083080;28;20044;-76
2024/01/16 04:30:20;;;;;;;15.80;3.72;;;-0.80;99.90;;;;;;5086860;28;20512;-76
2024/01/16 04:32:46;;;;;;;16.15;3.15;;;-0.80;99.90;;;;;;5087171;28;20131;-76
2024/01/16 04:35:11;;;;;;;31.08;4.88;;;-0.80;99.90;;;;;;5076922;28;20131;-76
2024/01/16 04:37:37;;;;;;;12.85;3.38;;;-0.80;99.90;;;;;;5072418;28;20476;-76
2024/01/16 04:40:05;;;;;;;24.77;4.65;;;-0.80;99.90;;;;;;5079275;28;20079;-76
2024/01/16 04:42:31;;;;;;;23.20;4.60;;;-0.80;99.90;;;;;;5070449;28;20059;-76
2024/01/16 04:44:57;;;;;;;12.50;3.13;;;-0.80;99.90;;;;;;5083986;28;20129;-76
2024/01/16 04:47:23;;;;;;;18.58;3.75;;;-0.80;99.90;;;;;;5072339;28;20060;-76
2024/01/16 04:49:49;;;;;;;17.80;4.13;;;-0.80;99.90;;;;;;5077059;28;20089;-76
2024/01/16 04:52:15;;;;;;;14.00;3.78;;;-0.80;99.90;;;;;;5070647;28;20052;-76
2024/01/16 04:54:41;;;;;;;18.13;4.00;;;-0.80;99.90;;;;;;5082408;28;20054;-77
2024/01/16 04:57:06;;;;;;;16.58;3.67;;;-0.80;99.90;;;;;;5086249;28;20533;-76
2024/01/16 04:59:33;;;;;;;19.58;3.60;;;-0.80;99.90;;;;;;5075846;28;20048;-76
2024/01/16 05:01:58;;;;;;;14.23;3.70;;;-0.80;99.90;;;;;;5088908;28;20048;-76
2024/01/16 05:04:24;;;;;;;14.77;4.05;;;-0.80;99.90;;;;;;5082654;28;20046;-76
2024/01/16 05:06:53;;;;;;;19.48;3.95;;;-0.80;99.90;;;;;;5086518;28;20051;-76
2024/01/16 05:09:21;;;;;;;;;;;-0.80;99.90;;;;;;5075391;28;20119;-76
2024/01/16 05:11:47;;;;;;;15.90;4.75;;;-0.70;99.90;;;;;;5079579;28;19925;-76
2024/01/16 05:14:12;;;;;;;17.00;4.78;;;-0.80;99.90;;;;;;5072207;28;20047;-76
2024/01/16 05:16:38;;;;;;;26.52;5.03;;;-0.70;99.90;;;;;;5073377;28;20489;-76
2024/01/16 05:19:03;;;;;;;26.48;4.72;;;-0.80;99.90;;;;;;5071666;28;20048;-76
2024/01/16 05:21:29;;;;;;;26.15;4.13;;;-0.80;99.90;;;;;;5073007;28;20505;-77
2024/01/16 05:23:55;;;;;;;38.72;4.90;;;-0.80;99.90;;;;;;5068993;28;20493;-77
2024/01/16 05:26:20;;;;;;;24.83;5.30;;;-0.70;99.90;;;;;;5074194;28;20128;-76
2024/01/16 05:28:46;;;;;;;29.70;5.93;;;-0.80;99.90;;;;;;5079600;28;20068;-76
2024/01/16 05:31:11;;;;;;;21.65;4.75;;;-0.80;99.90;;;;;;5085296;28;20137;-76
2024/01/16 05:33:37;;;;;;;20.35;4.97;;;-0.70;99.90;;;;;;5074451;28;20048;-76
2024/01/16 05:36:03;;;;;;;28.65;5.63;;;-0.80;99.90;;;;;;5078476;28;20110;-76
2024/01/16 05:38:28;;;;;;;23.10;5.32;;;-0.70;99.90;;;;;;5076399;28;20051;-76
2024/01/16 05:40:54;;;;;;;22.45;4.60;;;-0.70;99.90;;;;;;5076828;28;20048;-76
2024/01/16 05:43:19;;;;;;;27.05;5.38;;;-0.70;99.90;;;;;;5075751;28;20048;-76
2024/01/16 05:45:45;;;;;;;22.48;4.95;;;-0.70;99.90;;;;;;5067810;28;20067;-76
2024/01/16 05:48:11;;;;;;;18.70;4.53;;;-0.80;99.90;;;;;;5071619;28;20052;-76
2024/01/16 05:50:36;;;;;;;32.92;6.43;;;-0.70;99.90;;;;;;5075439;28;20462;-77
2024/01/16 05:53:02;;;;;;;15.65;4.72;;;-0.80;99.90;;;;;;5076499;28;20048;-77
2024/01/16 05:55:31;;;;;;;20.40;4.40;;;-0.80;99.90;;;;;;5069103;28;20040;-76
2024/01/16 05:57:59;;;;;;;17.50;4.75;;;-0.80;99.90;;;;;;5085454;28;20052;-76
2024/01/16 06:00:25;;;;;;;21.48;5.25;;;-0.80;99.90;;;;;;5082154;28;20119;-76
2024/01/16 06:02:50;;;;;;;24.48;5.15;;;-0.80;99.90;;;;;;5079906;28;20036;-76
2024/01/16 06:05:16;;;;;;;24.30;4.40;;;-0.70;99.90;;;;;;5080767;28;20047;-77
2024/01/16 06:07:42;;;;;;;21.50;4.82;;;-0.70;99.90;;;;;;5086727;28;20056;-76
2024/01/16 06:10:08;;;;;;;19.33;4.60;;;-0.70;99.90;;;;;;5071760;28;20040;-76
2024/01/16 06:12:34;;;;;;;21.73;5.30;;;-0.70;99.90;;;;;;5075986;28;20048;-77
2024/01/16 06:14:59;;;;;;;26.73;5.10;;;-0.70;99.90;;;;;;5072059;28;20071;-76
2024/01/16 06:17:25;;;;;;;19.63;4.82;;;-0.70;99.90;;;;;;5083060;28;20047;-76
2024/01/16 06:19:51;;;;;;;25.05;5.13;;;-0.70;99.90;;;;;;5079621;28;20063;-76
2024/01/16 06:22:17;;;;;;;19.02;4.82;;;-0.70;99.90;;;;;;5074746;28;20439;-76
2024/01/16 06:24:42;;;;;;;19.65;5.18;;;-0.70;99.90;;;;;;5071225;28;20044;-77
2024/01/16 06:27:08;;;;;;;17.48;4.45;;;-0.70;99.90;;;;;;5080016;28;20516;-77
2024/01/16 06:29:34;;;;;;;20.77;6.03;;;-0.70;99.90;;;;;;5050255;28;20037;-77
2024/01/16 06:31:59;;;;;;;24.17;5.82;;;-0.70;99.90;;;;;;5079295;28;20189;-77
2024/01/16 06:34:25;;;;;;;16.23;4.57;;;-0.70;99.90;;;;;;5074561;28;20490;-77
2024/01/16 06:36:50;;;;;;;28.70;6.10;;;-0.70;99.90;;;;;;5075745;28;20067;-76
2024/01/16 06:39:16;;;;;;;17.25;5.43;;;-0.70;99.90;;;;;;5079556;28;20033;-77
2024/01/16 06:41:43;;;;;;;23.73;6.05;;;-0.70;99.90;;;;;;5087764;28;20094;-76
2024/01/16 06:44:08;;;;;;;19.85;5.53;;;-0.60;99.90;;;;;;5081636;28;20131;-76
2024/01/16 06:46:34;;;;;;;20.83;6.50;;;-0.70;99.90;;;;;;5072402;28;20453;-76
2024/01/16 06:49:00;;;;;;;36.75;7.00;;;-0.60;99.90;;;;;;5068002;28;20052;-76
2024/01/16 06:51:26;;;;;;;27.70;7.03;;;-0.60;99.90;;;;;;5067598;28;20467;-76
2024/01/16 06:53:51;;;;;;;24.98;6.25;;;-0.60;99.90;;;;;;5071219;28;20049;-77
2024/01/16 06:56:17;;;;;;;22.80;6.57;;;-0.60;99.90;;;;;;5079332;28;20083;-76
2024/01/16 06:58:43;;;;;;;28.63;7.15;;;-0.60;99.90;;;;;;5074666;28;20076;-76
2024/01/16 07:01:09;;;;;;;30.65;6.70;;;-0.50;99.90;;;;;;5069961;28;20052;-76
2024/01/16 07:03:35;;;;;;;29.35;7.63;;;-0.50;99.90;;;;;;5075862;28;20045;-76
2024/01/16 07:06:01;;;;;;;32.92;8.45;;;-0.50;99.90;;;;;;5077319;28;20047;-76
2024/01/16 07:08:27;;;;;;;23.17;7.78;;;-0.50;99.90;;;;;;5073161;28;20062;-76
2024/01/16 07:10:52;;;;;;;21.52;6.93;;;-0.50;99.90;;;;;;5075295;28;20044;-76
2024/01/16 07:13:19;;;;;;;29.38;8.75;;;-0.50;99.90;;;;;;5073494;28;20044;-77
2024/01/16 07:15:44;;;;;;;29.10;9.15;;;-0.50;99.90;;;;;;5076010;28;20497;-77
2024/01/16 07:18:10;;;;;;;26.23;9.00;;;-0.50;99.90;;;;;;5067028;28;20158;-77
2024/01/16 07:20:36;;;;;;;22.63;9.38;;;-0.40;99.90;;;;;;5071856;28;20122;-76
2024/01/16 07:23:03;;;;;;;27.05;10.77;;;-0.50;99.90;;;;;;5072579;28;23007;-76
2024/01/16 07:25:29;;;;;;;25.20;11.05;;;-0.40;99.90;;;;;;5071514;28;20044;-76
2024/01/16 07:27:54;;;;;;;27.45;8.85;;;-0.40;99.90;;;;;;5080374;28;20219;-76
2024/01/16 07:30:20;;;;;;;28.90;11.07;;;-0.40;99.90;;;;;;5070343;28;20387;-77
2024/01/16 07:32:45;;;;;;;24.90;11.02;;;-0.40;99.90;;;;;;5072565;28;20413;-77
2024/01/16 07:35:11;;;;;;;29.80;12.27;;;-0.40;99.90;;;;;;5078371;28;20048;-77
2024/01/16 07:37:37;;;;;;;33.88;11.90;;;-0.40;99.90;;;;;;5075234;28;20078;-77
2024/01/16 07:40:05;;;;;;;30.20;11.10;;;-0.40;99.90;;;;;;5080900;28;20055;-77
2024/01/16 07:42:34;;;;;;;18.88;11.13;;;-0.40;99.90;;;;;;5074940;28;20063;-77
2024/01/16 07:45:04;;;;;;;30.27;11.45;;;-0.40;99.90;;;;;;5063325;28;20040;-77
2024/01/16 07:47:32;;;;;;;31.33;11.55;;;-0.40;99.90;;;;;;5081447;28;20067;-77
2024/01/16 07:49:59;;;;;;;31.58;12.20;;;-0.40;99.90;;;;;;5071241;28;20088;-78
2024/01/16 07:52:25;;;;;;;29.33;12.40;;;-0.40;99.90;;;;;;5080159;28;20053;-77
2024/01/16 07:54:51;;;;;;;36.95;14.40;;;-0.40;99.90;;;;;;5077715;28;20047;-77
2024/01/16 07:57:16;;;;;;;35.08;15.05;;;-0.40;99.90;;;;;;5073696;28;20192;-77
2024/01/16 07:59:42;;;;;;;26.95;13.70;;;-0.40;99.90;;;;;;5074896;28;20127;-77
2024/01/16 08:02:08;;;;;;;44.25;16.17;;;-0.40;99.90;;;;;;5074021;28;20041;-78
2024/01/16 08:04:34;;;;;;;44.25;17.15;;;-0.40;99.90;;;;;;5077339;28;20052;-78
2024/01/16 08:07:00;;;;;;;45.17;18.25;;;-0.40;99.90;;;;;;5078672;28;20045;-77
2024/01/16 08:09:26;;;;;;;41.17;17.83;;;-0.40;99.90;;;;;;5083723;28;20416;-77
2024/01/16 08:11:52;;;;;;;43.20;19.15;;;-0.40;99.90;;;;;;5078379;28;20063;-77
2024/01/16 08:14:17;;;;;;;48.20;19.52;;;-0.40;99.90;;;;;;5071470;28;20097;-77
2024/01/16 08:16:43;;;;;;;46.20;19.92;;;-0.40;99.90;;;;;;5077886;28;20044;-77
2024/01/16 08:19:09;;;;;;;35.45;17.85;;;-0.40;99.90;;;;;;5077699;28;20036;-77
2024/01/16 08:21:34;;;;;;;42.47;18.52;;;-0.40;99.90;;;;;;5075321;28;20056;-77
2024/01/16 08:24:00;;;;;;;47.20;21.05;;;-0.30;99.90;;;;;;5085811;28;20043;-77
2024/01/16 08:26:26;;;;;;;44.70;21.98;;;-0.30;99.90;;;;;;5079213;28;20461;-77
2024/01/16 08:28:51;;;;;;;50.03;21.80;;;-0.20;99.90;;;;;;5078907;28;20127;-76
2024/01/16 08:31:20;;;;;;;54.55;21.48;;;-0.20;99.90;;;;;;5075286;28;20080;-77
2024/01/16 08:33:47;;;;;;;51.42;22.02;;;-0.20;99.90;;;;;;5078990;28;20044;-77
2024/01/16 08:36:15;;;;;;;41.60;21.23;;;-0.20;99.90;;;;;;5072508;28;20060;-77
2024/01/16 08:38:40;;;;;;;51.63;23.30;;;-0.10;99.90;;;;;;5068262;28;20642;-77
2024/01/16 08:41:07;;;;;;;40.10;21.15;;;-0.10;99.90;;;;;;5078859;28;20080;-77
2024/01/16 08:43:33;;;;;;;47.25;22.92;;;0.00;99.90;;;;;;5074721;28;20080;-77
2024/01/16 08:45:59;;;;;;;51.85;22.70;;;0.00;99.90;;;;;;5075803;28;20105;-77
2024/01/16 08:48:25;;;;;;;47.35;21.77;;;0.00;99.90;;;;;;5068661;28;20052;-77
2024/01/16 08:50:51;;;;;;;43.75;20.67;;;0.10;99.90;;;;;;5074768;28;20048;-78
2024/01/16 08:53:17;;;;;;;44.45;20.83;;;0.10;99.90;;;;;;5071209;28;20670;-78
2024/01/16 08:55:43;;;;;;;47.92;21.08;;;0.10;99.90;;;;;;5075295;28;20078;-77
2024/01/16 08:58:08;;;;;;;45.80;20.33;;;0.10;99.90;;;;;;5077760;28;20043;-77
2024/01/16 09:00:34;;;;;;;38.47;20.33;;;0.10;99.90;;;;;;5074852;28;20135;-77
2024/01/16 09:02:59;;;;;;;42.33;20.20;;;0.20;99.90;;;;;;5067095;28;20052;-78
2024/01/16 09:05:25;;;;;;;34.65;18.85;;;0.20;99.90;;;;;;5066409;28;20048;-77
2024/01/16 09:07:52;;;;;;;42.08;21.02;;;0.30;99.90;;;;;;5074879;28;20063;-77
2024/01/16 09:10:18;;;;;;;46.72;20.63;;;0.40;99.90;;;;;;5083828;28;20923;-78
2024/01/16 09:12:44;;;;;;;46.45;20.60;;;0.40;99.90;;;;;;5078688;28;20048;-78
2024/01/16 09:15:10;;;;;;;39.75;19.80;;;0.40;99.90;;;;;;5073206;28;20071;-78
2024/01/16 09:17:36;;;;;;;46.42;19.90;;;0.50;99.90;;;;;;5055983;28;20497;-77
2024/01/16 09:20:01;;;;;;;42.60;21.40;;;0.50;99.90;;;;;;5074678;28;20054;-77
2024/01/16 09:22:27;;;;;;;45.30;21.38;;;0.40;99.90;;;;;;5074100;28;20047;-78
2024/01/16 09:24:53;;;;;;;42.70;19.13;;;0.50;99.90;;;;;;5072045;28;20052;-78
2024/01/16 09:27:19;;;;;;;45.95;19.27;;;0.50;99.90;;;;;;5079063;28;20048;-78
2024/01/16 09:29:45;;;;;;;43.83;19.13;;;0.50;99.90;;;;;;5070798;28;20127;-77
2024/01/16 09:32:10;;;;;;;40.88;18.05;;;0.50;99.90;;;;;;5071034;28;20036;-77
2024/01/16 09:34:36;;;;;;;36.67;17.98;;;0.50;99.90;;;;;;5081215;28;20032;-77
2024/01/16 09:37:02;;;;;;;44.53;19.63;;;0.50;99.90;;;;;;5082594;28;20048;-77
2024/01/16 09:39:30;;;;;;;48.53;19.05;;;0.50;99.90;;;;;;5082994;28;20081;-77
2024/01/16 09:42:00;;;;;;;53.35;17.45;;;0.60;99.90;;;;;;5075147;28;20047;-77
2024/01/16 09:44:27;;;;;;;39.30;18.30;;;0.70;99.90;;;;;;5072837;28;20084;-78
2024/01/16 09:46:55;;;;;;;37.28;18.85;;;0.70;99.90;;;;;;5073025;28;20576;-78
2024/01/16 09:49:23;;;;;;;10.77;4.07;;;0.70;99.90;;;;;;5073570;28;20159;-78
2024/01/16 09:51:49;;;;;;;45.22;19.30;;;0.70;99.90;;;;;;5056300;28;20054;-78
2024/01/16 09:54:14;;;;;;;40.05;18.92;;;0.80;99.90;;;;;;5067243;28;20448;-77
2024/01/16 09:56:45;;;;;;;44.47;20.98;;;0.80;99.90;;;;;;5072807;28;20051;-78
2024/01/16 09:59:18;;;;;;;49.80;22.20;;;0.90;99.90;;;;;;5065751;28;20091;-78
2024/01/16 10:01:44;;;;;;;11.38;4.10;;;0.90;99.90;;;;;;5071266;28;20036;-78
2024/01/16 10:04:10;;;;;;;41.70;22.10;;;0.90;99.90;;;;;;5078618;28;20128;-78
2024/01/16 10:06:39;;;;;;;52.95;24.13;;;0.90;99.90;;;;;;5065874;28;20051;-78
2024/01/16 10:09:04;;;;;;;;;;;1.00;99.90;;;;;;5075167;28;20869;-79
2024/01/16 10:11:31;;;;;;;60.75;27.40;;;0.90;99.90;;;;;;5075829;28;20043;-79
2024/01/16 10:13:58;;;;;;;58.30;26.83;;;0.90;99.90;;;;;;5067481;28;20113;-79
2024/01/16 10:16:58;;;;;;;60.38;31.15;;;1.00;99.90;;;;;;5074977;28;20048;-79
2024/01/16 10:19:26;;;;;;;74.63;32.10;;;1.00;99.90;;;;;;5075953;28;20449;-79
2024/01/16 10:21:52;;;;;;;84.05;34.10;;;1.00;99.90;;;;;;5077153;28;20036;-79
2024/01/16 10:24:17;;;;;;;75.90;36.75;;;1.00;99.90;;;;;;5071853;28;20044;-79
2024/01/16 10:26:43;;;;;;;81.30;35.67;;;1.10;99.90;;;;;;5075314;28;20044;-80
2024/01/16 10:29:09;;;;;;;77.50;35.80;;;1.10;99.90;;;;;;5075612;28;20036;-79
2024/01/16 10:31:34;;;;;;;68.97;34.70;;;1.20;99.90;;;;;;5067437;28;20075;-80
2024/01/16 10:34:00;;;;;;;62.15;32.83;;;1.20;99.90;;;;;;5061925;28;20131;-80
2024/01/16 10:36:26;;;;;;;70.82;32.20;;;1.30;99.90;;;;;;5068165;28;20095;-80
2024/01/16 10:38:57;;;;;;;67.72;29.90;;;1.30;99.90;;;;;;5072418;28;20060;-80
2024/01/16 10:41:26;;;;;;;60.50;31.02;;;1.30;99.90;;;;;;5076079;28;20606;-80
2024/01/16 10:44:07;;;;;;;70.10;31.65;;;1.40;99.90;;;;;;5067847;28;20482;-80
2024/01/16 10:46:33;;;;;;;60.10;28.02;;;1.40;99.90;;;;;;5076241;28;20048;-81
2024/01/16 10:49:00;;;;;;;59.95;30.63;;;1.40;99.90;;;;;;5072312;28;20494;-80
2024/01/16 10:51:30;;;;;;;61.08;28.65;;;1.30;99.90;;;;;;5070992;28;20037;-80
2024/01/16 10:54:03;;;;;;;68.13;29.00;;;1.30;99.90;;;;;;5079732;28;20055;-80
2024/01/16 10:56:29;;;;;;;58.47;29.10;;;1.40;99.90;;;;;;5070599;28;20045;-80
2024/01/16 10:59:56;;;;;;;57.63;27.25;;;1.30;99.90;;;;;;5072092;28;20052;-80
2024/01/16 11:02:26;;;;;;;57.83;24.63;;;1.40;99.90;;;;;;5036314;28;20057;-80
2024/01/16 11:04:54;;;;;;;61.45;25.35;;;1.40;99.90;;;;;;5076208;28;20409;-80
2024/01/16 11:07:22;;;;;;;46.65;23.70;;;1.40;99.90;;;;;;5075826;28;20123;-81
2024/01/16 11:09:49;;;;;;;47.05;24.08;;;1.40;99.90;;;;;;5081048;28;20040;-81
2024/01/16 11:12:17;;;;;;;48.45;22.23;;;1.40;99.90;;;;;;5086623;28;20050;-80
2024/01/16 11:14:50;;;;;;;41.22;20.45;;;1.40;99.90;;;;;;5075673;28;20048;-80
2024/01/16 11:17:20;;;;;;;42.88;19.33;;;1.40;99.90;;;;;;5075157;28;20051;-80
2024/01/16 11:19:47;;;;;;;30.48;17.20;;;1.40;99.90;;;;;;5072384;28;20040;-79
2024/01/16 11:22:18;;;;;;;26.58;15.43;;;1.40;99.90;;;;;;5089694;28;20066;-80
2024/01/16 11:25:09;;;;;;;33.65;14.02;;;1.50;99.90;;;;;;5084254;28;20056;-79
2024/01/16 11:27:40;;;;;;;36.05;11.70;;;1.50;99.90;;;;;;5073950;28;20048;-80
2024/01/16 11:30:08;;;;;;;25.50;12.02;;;1.50;99.90;;;;;;5078789;28;20230;-80
2024/01/16 11:32:44;;;;;;;26.60;10.85;;;1.50;99.90;;;;;;5074797;28;20049;-80
2024/01/16 11:35:11;;;;;;;16.58;9.05;;;1.60;99.90;;;;;;5079042;28;20079;-80
2024/01/16 11:37:41;;;;;;;20.15;8.80;;;1.60;99.90;;;;;;5082491;28;20035;-80
2024/01/16 11:40:21;;;;;;;18.92;8.60;;;1.60;99.90;;;;;;5077534;28;20063;-80
2024/01/16 11:42:49;;;;;;;19.75;8.68;;;1.60;99.90;;;;;;5084770;28;20091;-80
2024/01/16 11:45:30;;;;;;;17.98;8.23;;;1.60;99.90;;;;;;5074066;28;20557;-80
2024/01/16 11:48:11;;;;;;;24.00;9.07;;;1.60;99.90;;;;;;5076645;28;20051;-80
2024/01/16 11:50:37;;;;;;;21.45;7.82;;;1.60;99.90;;;;;;5080455;28;20040;-80
2024/01/16 11:53:04;;;;;;;39.38;9.25;;;1.50;99.90;;;;;;5080059;28;20067;-81
2024/01/16 11:55:35;;;;;;;22.60;7.85;;;1.50;99.90;;;;;;5074551;28;20051;-81
2024/01/16 11:58:36;;;;;;;25.90;8.40;;;1.60;99.90;;;;;;5074618;28;20127;-81
2024/01/16 12:01:05;;;;;;;22.85;7.35;;;1.50;99.90;;;;;;5077503;28;20758;-81
2024/01/16 12:03:31;;;;;;;3.60;2.38;;;1.50;99.90;;;;;;5071780;28;20043;-80
2024/01/16 12:05:58;;;;;;;29.70;8.73;;;1.50;99.90;;;;;;5079298;28;20528;-80
2024/01/16 12:08:24;;;;;;;22.10;8.10;;;1.50;99.90;;;;;;5075502;28;20048;-80
2024/01/16 12:10:49;;;;;;;26.42;8.70;;;1.50;99.90;;;;;;5070240;28;20174;-80
2024/01/16 12:13:15;;;;;;;26.45;10.27;;;1.50;99.90;;;;;;5067007;28;20048;-80
2024/01/16 12:15:42;;;;;;;24.13;8.93;;;1.50;99.90;;;;;;5057972;28;20406;-80
2024/01/16 12:18:09;;;;;;;32.97;8.85;;;1.50;99.90;;;;;;5073084;28;20059;-80
2024/01/16 12:20:38;;;;;;;40.22;10.10;;;1.50;99.90;;;;;;5074030;28;20044;-80
2024/01/16 12:23:09;;;;;;;23.27;8.73;;;1.60;99.90;;;;;;5066763;28;20047;-80
2024/01/16 12:25:36;;;;;;;20.25;10.00;;;1.60;99.90;;;;;;5071413;28;20045;-80
2024/01/16 12:28:04;;;;;;;27.63;9.32;;;1.60;99.90;;;;;;5079235;28;20624;-80
2024/01/16 12:30:31;;;;;;;23.55;10.18;;;1.70;99.90;;;;;;5074342;28;20209;-79
2024/01/16 12:33:13;;;;;;;26.75;10.00;;;1.70;99.90;;;;;;5074688;28;20045;-79
2024/01/16 12:35:40;;;;;;;31.80;11.88;;;1.70;99.90;;;;;;5075874;28;20044;-79
2024/01/16 12:38:10;;;;;;;28.48;11.07;;;1.80;99.90;;;;;;5075058;28;20126;-79